createdAt,value
2018-06-02T00:00:47.303Z,3.90
2018-06-02T00:03:14.805Z,3.90
2018-06-02T00:05:42.257Z,3.67
2018-06-02T00:08:09.744Z,3.93
2018-06-02T00:10:37.193Z,3.10
2018-06-02T00:13:04.739Z,3.33
2018-06-02T00:15:32.191Z,3.33
2018-06-02T00:17:59.649Z,3.70
2018-06-02T00:20:27.128Z,3.60
2018-06-02T00:22:54.603Z,3.80
2018-06-02T00:25:22.078Z,3.43
2018-06-02T00:27:49.609Z,4.20
2018-06-02T00:30:17.069Z,4.27
2018-06-02T00:32:44.599Z,3.17
2018-06-02T00:35:12.043Z,4.50
2018-06-02T00:37:39.532Z,4.07
2018-06-02T00:40:06.992Z,5.47
2018-06-02T00:42:34.538Z,4.13
2018-06-02T00:45:02.019Z,4.53
2018-06-02T00:47:29.550Z,5.07
2018-06-02T00:49:57.048Z,5.33
2018-06-02T00:52:24.505Z,4.40
2018-06-02T00:55:03.715Z,4.60
2018-06-02T00:57:31.186Z,4.70
2018-06-02T00:59:58.747Z,5.87
2018-06-02T01:02:26.200Z,4.67
2018-06-02T01:04:53.656Z,4.10
2018-06-02T01:07:21.147Z,4.47
2018-06-02T01:09:48.580Z,4.20
2018-06-02T01:12:16.056Z,4.90
2018-06-02T01:14:43.690Z,4.37
2018-06-02T01:17:11.139Z,4.23
2018-06-02T01:19:38.612Z,6.10
2018-06-02T01:22:06.051Z,6.13
2018-06-02T01:24:33.494Z,5.10
2018-06-02T01:27:01.075Z,4.60
2018-06-02T01:29:28.541Z,4.93
2018-06-02T01:31:56.014Z,4.60
2018-06-02T01:34:23.464Z,4.70
2018-06-02T01:36:50.922Z,4.77
2018-06-02T01:39:18.387Z,4.80
2018-06-02T01:41:45.928Z,4.93
2018-06-02T01:44:13.379Z,4.40
2018-06-02T01:46:40.838Z,5.30
2018-06-02T01:49:08.293Z,4.23
2018-06-02T01:51:35.752Z,5.40
2018-06-02T01:54:03.217Z,4.60
2018-06-02T01:56:30.679Z,4.10
2018-06-02T01:58:58.120Z,5.73
2018-06-02T02:01:25.564Z,4.90
2018-06-02T02:03:53.011Z,5.03
2018-06-02T02:06:20.451Z,5.30
2018-06-02T02:08:47.895Z,5.33
2018-06-02T02:11:15.391Z,5.57
2018-06-02T02:13:42.859Z,5.07
2018-06-02T02:16:10.320Z,5.10
2018-06-02T02:18:37.801Z,5.30
2018-06-02T02:21:05.263Z,6.00
2018-06-02T02:23:32.744Z,4.90
2018-06-02T02:26:00.279Z,4.50
2018-06-02T02:28:27.723Z,4.77
2018-06-02T02:30:55.165Z,5.67
2018-06-02T02:33:22.627Z,5.30
2018-06-02T02:35:50.075Z,5.60
2018-06-02T02:38:17.539Z,5.77
2018-06-02T02:40:44.988Z,5.27
2018-06-02T02:43:12.461Z,5.17
2018-06-02T02:45:39.915Z,5.10
2018-06-02T02:48:07.431Z,4.93
2018-06-02T02:50:34.899Z,5.40
2018-06-02T02:53:02.350Z,4.93
2018-06-02T02:55:29.824Z,4.50
2018-06-02T02:57:57.321Z,5.13
2018-06-02T03:00:24.796Z,5.70
2018-06-02T03:02:52.266Z,6.00
2018-06-02T03:05:19.717Z,6.10
2018-06-02T03:07:47.150Z,4.70
2018-06-02T03:10:14.580Z,5.40
2018-06-02T03:12:42.066Z,5.23
2018-06-02T03:15:09.517Z,5.80
2018-06-02T03:17:36.967Z,5.50
2018-06-02T03:20:04.510Z,5.10
2018-06-02T03:22:31.928Z,4.27
2018-06-02T03:24:59.451Z,5.47
2018-06-02T03:27:26.901Z,5.73
2018-06-02T03:29:54.348Z,6.03
2018-06-02T03:32:21.809Z,6.30
2018-06-02T03:34:49.249Z,6.10
2018-06-02T03:37:16.810Z,6.30
2018-06-02T03:39:44.259Z,5.87
2018-06-02T03:42:11.738Z,6.13
2018-06-02T03:44:39.310Z,6.33
2018-06-02T03:47:06.779Z,5.80
2018-06-02T03:49:34.217Z,5.30
2018-06-02T03:52:01.732Z,6.27
2018-06-02T03:54:29.191Z,5.40
2018-06-02T03:56:56.638Z,5.30
2018-06-02T03:59:24.120Z,4.43
2018-06-02T04:01:51.601Z,6.10
2018-06-02T04:04:19.063Z,4.60
2018-06-02T04:06:46.498Z,5.80
2018-06-02T04:09:13.968Z,6.93
2018-06-02T04:11:41.428Z,6.30
2018-06-02T04:14:09.017Z,5.50
2018-06-02T04:16:36.472Z,5.57
2018-06-02T04:19:03.917Z,6.30
2018-06-02T04:21:31.367Z,7.03
2018-06-02T04:23:58.835Z,6.27
2018-06-02T04:26:26.370Z,5.50
2018-06-02T04:28:53.839Z,5.40
2018-06-02T04:31:21.315Z,6.50
2018-06-02T04:33:48.848Z,6.30
2018-06-02T04:36:16.409Z,6.33
2018-06-02T04:38:43.880Z,6.03
2018-06-02T04:41:11.329Z,6.43
2018-06-02T04:43:38.792Z,6.67
2018-06-02T04:46:06.450Z,6.50
2018-06-02T04:48:33.935Z,5.87
2018-06-02T04:51:01.377Z,6.70
2018-06-02T04:53:28.828Z,5.40
2018-06-02T04:55:56.307Z,5.47
2018-06-02T04:58:23.795Z,5.07
2018-06-02T05:00:51.254Z,5.10
2018-06-02T05:03:18.734Z,6.70
2018-06-02T05:05:46.208Z,7.67
2018-06-02T05:08:13.730Z,6.37
2018-06-02T05:10:41.179Z,6.30
2018-06-02T05:13:08.669Z,5.57
2018-06-02T05:15:36.127Z,5.40
2018-06-02T05:18:03.592Z,5.53
2018-06-02T05:20:31.048Z,5.30
2018-06-02T05:22:58.504Z,5.27
2018-06-02T05:25:26.062Z,5.60
2018-06-02T05:27:53.512Z,5.20
2018-06-02T05:30:20.965Z,6.13
2018-06-02T05:32:48.434Z,5.47
2018-06-02T05:35:15.887Z,4.50
2018-06-02T05:37:43.370Z,4.27
2018-06-02T05:40:10.836Z,5.20
2018-06-02T05:42:38.310Z,5.03
2018-06-02T05:45:05.818Z,5.07
2018-06-02T05:47:33.259Z,5.30
2018-06-02T05:50:00.729Z,5.37
2018-06-02T05:52:28.184Z,5.10
2018-06-02T05:54:55.664Z,4.40
2018-06-02T05:57:23.108Z,3.77
2018-06-02T05:59:50.582Z,4.53
2018-06-02T06:02:18.037Z,4.40
2018-06-02T06:04:45.510Z,4.67
2018-06-02T06:07:12.974Z,4.00
2018-06-02T06:09:40.422Z,3.70
2018-06-02T06:12:07.879Z,4.40
2018-06-02T06:14:35.357Z,5.33
2018-06-02T06:17:02.840Z,6.90
2018-06-02T06:19:30.327Z,5.10
2018-06-02T06:21:57.787Z,5.30
2018-06-02T06:24:25.285Z,5.20
2018-06-02T06:26:52.778Z,5.20
2018-06-02T06:29:20.233Z,5.30
2018-06-02T06:31:47.746Z,6.20
2018-06-02T06:34:15.259Z,5.20
2018-06-02T06:36:42.714Z,5.40
2018-06-02T06:39:10.194Z,5.00
2018-06-02T06:41:37.644Z,6.03
2018-06-02T06:44:05.103Z,5.43
2018-06-02T06:46:32.624Z,5.60
2018-06-02T06:49:00.070Z,5.03
2018-06-02T06:51:27.547Z,5.60
2018-06-02T06:53:55.035Z,5.73
2018-06-02T06:56:22.474Z,5.40
2018-06-02T06:58:49.952Z,5.23
2018-06-02T07:01:17.420Z,4.80
2018-06-02T07:03:44.949Z,5.20
2018-06-02T07:06:12.401Z,4.90
2018-06-02T07:08:39.848Z,4.90
2018-06-02T07:11:07.527Z,4.77
2018-06-02T07:13:35.109Z,4.97
2018-06-02T07:16:02.562Z,4.90
2018-06-02T07:18:29.985Z,4.70
2018-06-02T07:20:57.455Z,4.83
2018-06-02T07:23:24.902Z,4.50
2018-06-02T07:25:52.681Z,4.50
2018-06-02T07:28:20.140Z,5.70
2018-06-02T07:30:47.592Z,7.37
2018-06-02T07:33:15.037Z,7.37
2018-06-02T07:35:42.476Z,4.83
2018-06-02T07:38:09.927Z,5.50
2018-06-02T07:40:37.397Z,5.10
2018-06-02T07:43:04.945Z,6.40
2018-06-02T07:45:32.377Z,4.37
2018-06-02T07:47:59.817Z,4.00
2018-06-02T07:50:27.253Z,3.80
2018-06-02T07:52:54.949Z,4.50
2018-06-02T07:55:22.459Z,5.00
2018-06-02T07:57:49.918Z,4.87
2018-06-02T08:00:17.443Z,3.90
2018-06-02T08:02:44.895Z,3.27
2018-06-02T08:05:12.362Z,3.40
2018-06-02T08:07:39.801Z,3.70
2018-06-02T08:10:07.319Z,3.10
2018-06-02T08:12:34.776Z,3.30
2018-06-02T08:15:02.205Z,3.47
2018-06-02T08:17:29.917Z,3.10
2018-06-02T08:19:57.486Z,4.00
2018-06-02T08:22:24.946Z,2.97
2018-06-02T08:24:52.420Z,3.50
2018-06-02T08:27:19.874Z,3.63
2018-06-02T08:29:47.338Z,3.70
2018-06-02T08:32:14.815Z,3.77
2018-06-02T08:34:43.046Z,2.50
2018-06-02T08:37:10.505Z,2.87
2018-06-02T08:39:37.948Z,3.80
2018-06-02T08:42:05.522Z,3.00
2018-06-02T08:44:32.999Z,3.10
2018-06-02T08:47:00.648Z,2.73
2018-06-02T08:49:28.108Z,3.73
2018-06-02T08:51:55.564Z,3.80
2018-06-02T08:54:23.004Z,2.90
2018-06-02T08:56:50.511Z,3.20
2018-06-02T08:59:18.037Z,3.27
2018-06-02T09:01:45.554Z,2.67
2018-06-02T09:04:12.993Z,3.50
2018-06-02T09:06:40.467Z,2.53
2018-06-02T09:09:07.956Z,3.20
2018-06-02T09:11:35.451Z,2.60
2018-06-02T09:14:02.941Z,2.40
2018-06-02T09:16:30.389Z,2.77
2018-06-02T09:18:58.066Z,3.10
2018-06-02T09:21:25.531Z,2.70
2018-06-02T09:23:52.978Z,3.00
2018-06-02T09:26:20.432Z,3.20
2018-06-02T09:28:48.095Z,3.00
2018-06-02T09:31:15.737Z,2.60
2018-06-02T09:33:43.219Z,2.97
2018-06-02T09:36:10.712Z,2.17
2018-06-02T09:38:38.164Z,2.47
2018-06-02T09:41:05.958Z,2.37
2018-06-02T09:43:33.422Z,1.90
2018-06-02T09:46:00.928Z,2.00
2018-06-02T09:48:28.466Z,2.60
2018-06-02T09:50:55.938Z,2.60
2018-06-02T09:53:23.388Z,2.30
2018-06-02T09:55:50.836Z,2.10
2018-06-02T09:58:19.093Z,2.00
2018-06-02T10:00:46.546Z,2.17
2018-06-02T10:03:14.162Z,2.00
2018-06-02T10:05:41.629Z,2.07
2018-06-02T10:08:09.197Z,1.60
2018-06-02T10:10:36.724Z,2.27
2018-06-02T10:13:04.468Z,1.80
2018-06-02T10:15:31.960Z,1.60
2018-06-02T10:17:59.432Z,2.10
2018-06-02T10:20:26.935Z,1.73
2018-06-02T10:22:54.395Z,2.20
2018-06-02T10:25:32.598Z,2.00
2018-06-02T10:28:14.175Z,2.40
2018-06-02T10:30:41.753Z,2.10
2018-06-02T10:33:09.224Z,1.97
2018-06-02T10:35:36.743Z,2.10
2018-06-02T10:38:04.221Z,2.13
2018-06-02T10:40:31.657Z,1.77
2018-06-02T10:42:59.126Z,1.90
2018-06-02T10:45:26.658Z,1.80
2018-06-02T10:47:54.133Z,2.40
2018-06-02T10:50:21.584Z,2.40
2018-06-02T10:52:49.063Z,2.23
2018-06-02T10:55:16.500Z,2.07
2018-06-02T10:57:44.202Z,2.00
2018-06-02T11:00:11.634Z,2.60
2018-06-02T11:08:44.454Z,2.87
2018-06-02T11:11:11.913Z,2.30
2018-06-02T11:13:39.404Z,2.20
2018-06-02T11:16:06.867Z,2.13
2018-06-02T11:18:34.317Z,2.00
2018-06-02T11:21:01.789Z,1.63
2018-06-02T11:23:29.256Z,1.83
2018-06-02T11:25:56.738Z,2.40
2018-06-02T11:28:24.191Z,2.40
2018-06-02T11:30:51.635Z,2.33
2018-06-02T11:33:19.096Z,2.27
2018-06-02T11:35:46.586Z,2.70
2018-06-02T11:38:14.071Z,2.23
2018-06-02T11:40:41.574Z,3.10
2018-06-02T11:43:09.060Z,2.80
2018-06-02T11:45:36.560Z,3.90
2018-06-02T11:48:04.059Z,2.87
2018-06-02T11:50:31.557Z,2.93
2018-06-02T11:52:59.025Z,3.20
2018-06-02T11:55:26.509Z,3.20
2018-06-02T11:57:53.977Z,2.60
2018-06-02T12:00:21.431Z,2.43
2018-06-02T12:02:49.008Z,2.83
2018-06-02T12:05:16.462Z,2.70
2018-06-02T12:07:43.929Z,2.30
2018-06-02T12:10:11.380Z,1.90
2018-06-02T12:12:38.870Z,2.03
2018-06-02T12:15:06.382Z,2.03
2018-06-02T12:17:33.873Z,2.03
2018-06-02T12:20:01.448Z,1.90
2018-06-02T12:22:28.921Z,1.77
2018-06-02T12:24:56.443Z,2.03
2018-06-02T12:27:23.917Z,2.03
2018-06-02T12:29:51.437Z,2.47
2018-06-02T12:32:18.929Z,1.87
2018-06-02T12:34:46.422Z,1.53
2018-06-02T12:37:13.883Z,2.20
2018-06-02T12:39:41.360Z,1.90
2018-06-02T12:42:08.834Z,1.57
2018-06-02T12:44:36.299Z,1.70
2018-06-02T12:47:06.234Z,2.00
2018-06-02T12:49:34.030Z,1.83
2018-06-02T12:52:01.559Z,2.13
2018-06-02T12:54:29.057Z,1.70
2018-06-02T12:56:56.526Z,2.00
2018-06-02T12:59:24.019Z,2.00
2018-06-02T13:01:51.561Z,2.53
2018-06-02T13:04:19.051Z,1.47
2018-06-02T13:06:46.562Z,1.83
2018-06-02T13:09:14.044Z,1.70
2018-06-02T13:11:42.344Z,5.60
2018-06-02T13:14:09.833Z,1.80
2018-06-02T13:16:37.306Z,1.87
2018-06-02T13:19:04.774Z,1.97
2018-06-02T13:21:32.254Z,1.80
2018-06-02T13:23:59.754Z,2.03
2018-06-02T13:26:27.242Z,2.53
2018-06-02T13:28:54.697Z,1.67
2018-06-02T13:31:22.173Z,1.80
2018-06-02T13:33:49.635Z,2.10
2018-06-02T13:36:17.135Z,2.00
2018-06-02T13:38:44.655Z,1.77
2018-06-02T13:41:12.110Z,1.70
2018-06-02T13:43:39.662Z,1.60
2018-06-02T13:46:07.110Z,1.70
2018-06-02T13:48:34.567Z,1.87
2018-06-02T13:51:02.027Z,1.63
2018-06-02T13:53:29.504Z,1.20
2018-06-02T13:55:57.048Z,1.30
2018-06-02T13:58:24.503Z,1.67
2018-06-02T14:00:52.109Z,1.70
2018-06-02T14:03:19.573Z,1.70
2018-06-02T14:05:47.022Z,1.90
2018-06-02T14:08:14.484Z,1.90
2018-06-02T14:10:41.948Z,1.80
2018-06-02T14:13:09.426Z,1.97
2018-06-02T14:15:36.930Z,2.27
2018-06-02T14:18:04.430Z,2.20
2018-06-02T14:20:31.945Z,1.90
2018-06-02T14:22:59.389Z,1.57
2018-06-02T14:25:26.919Z,1.47
2018-06-02T14:27:54.422Z,1.80
2018-06-02T14:30:21.981Z,2.00
2018-06-02T14:32:49.505Z,2.17
2018-06-02T14:35:17.110Z,1.97
2018-06-02T14:37:44.648Z,2.30
2018-06-02T14:40:12.087Z,3.07
2018-06-02T14:42:39.527Z,2.80
2018-06-02T14:45:07.005Z,3.33
2018-06-02T14:47:34.455Z,3.07
2018-06-02T14:50:01.914Z,3.00
2018-06-02T14:52:29.350Z,4.27
2018-06-02T14:54:56.844Z,4.43
2018-06-02T14:57:24.290Z,2.27
2018-06-02T14:59:51.759Z,2.97
2018-06-02T15:02:19.237Z,2.43
2018-06-02T15:04:46.713Z,4.43
2018-06-02T15:07:14.181Z,4.03
2018-06-02T15:09:41.672Z,3.37
2018-06-02T15:12:09.139Z,2.00
2018-06-02T15:14:36.822Z,2.00
2018-06-02T15:17:04.253Z,2.47
2018-06-02T15:19:31.737Z,3.93
2018-06-02T15:21:59.186Z,2.27
2018-06-02T15:24:26.649Z,4.20
2018-06-02T15:26:54.120Z,4.60
2018-06-02T15:29:21.555Z,5.00
2018-06-02T15:31:49.006Z,2.80
2018-06-02T15:34:16.575Z,4.80
2018-06-02T15:36:48.745Z,2.87
2018-06-02T15:39:16.218Z,3.47
2018-06-02T15:41:43.771Z,4.00
2018-06-02T15:44:11.303Z,4.37
2018-06-02T15:46:38.767Z,2.63
2018-06-02T15:49:06.209Z,4.10
2018-06-02T15:51:33.704Z,3.27
2018-06-02T15:54:01.264Z,3.00
2018-06-02T15:56:28.798Z,2.60
2018-06-02T15:58:57.334Z,4.23
2018-06-02T16:01:24.801Z,4.57
2018-06-02T16:03:52.298Z,4.50
2018-06-02T16:06:19.761Z,5.47
2018-06-02T16:08:47.228Z,3.27
2018-06-02T16:11:14.723Z,2.93
2018-06-02T16:13:42.227Z,2.67
2018-06-02T16:16:09.769Z,2.20
2018-06-02T16:18:37.245Z,2.90
2018-06-02T16:21:04.695Z,2.77
2018-06-02T16:23:32.147Z,2.77
2018-06-02T16:25:59.615Z,3.23
2018-06-02T16:28:27.077Z,3.30
2018-06-02T16:30:54.525Z,3.40
2018-06-02T16:33:22.051Z,3.60
2018-06-02T16:35:49.514Z,2.60
2018-06-02T16:38:16.977Z,2.60
2018-06-02T16:40:44.410Z,2.23
2018-06-02T16:43:12.134Z,2.43
2018-06-02T16:45:39.622Z,2.27
2018-06-02T16:48:07.064Z,2.33
2018-06-02T16:50:34.534Z,2.80
2018-06-02T16:53:01.992Z,3.00
2018-06-02T16:55:29.473Z,2.50
2018-06-02T16:57:56.999Z,3.00
2018-06-02T17:00:24.512Z,2.80
2018-06-02T17:02:51.981Z,2.60
2018-06-02T17:05:19.445Z,2.63
2018-06-02T17:07:46.908Z,2.87
2018-06-02T17:10:14.353Z,2.67
2018-06-02T17:12:41.817Z,2.30
2018-06-02T17:15:09.272Z,2.80
2018-06-02T17:17:36.733Z,2.73
2018-06-02T17:20:04.349Z,2.90
2018-06-02T17:22:31.754Z,3.00
2018-06-02T17:24:59.197Z,3.20
2018-06-02T17:27:26.656Z,2.90
2018-06-02T17:29:54.117Z,3.00
2018-06-02T17:32:21.834Z,3.00
2018-06-02T17:34:49.290Z,3.00
2018-06-02T17:37:16.773Z,4.67
2018-06-02T17:39:45.436Z,2.73
2018-06-02T17:42:12.991Z,2.90
2018-06-02T17:44:40.604Z,2.93
2018-06-02T17:47:08.077Z,2.43
2018-06-02T17:49:35.524Z,3.33
2018-06-02T17:52:02.968Z,2.53
2018-06-02T17:54:30.450Z,3.53
2018-06-02T17:56:57.917Z,2.33
2018-06-02T17:59:25.394Z,4.13
2018-06-02T18:01:52.907Z,2.60
2018-06-02T18:04:20.345Z,2.47
2018-06-02T18:06:47.791Z,3.20
2018-06-02T18:09:15.250Z,3.50
2018-06-02T18:11:42.719Z,3.50
2018-06-02T18:14:10.197Z,3.10
2018-06-02T18:16:37.751Z,4.07
2018-06-02T18:19:05.187Z,3.50
2018-06-02T18:21:32.629Z,3.20
2018-06-02T18:24:00.095Z,5.50
2018-06-02T18:26:27.553Z,3.13
2018-06-02T18:28:55.020Z,3.83
2018-06-02T18:31:22.471Z,3.80
2018-06-02T18:33:49.927Z,4.60
2018-06-02T18:36:17.373Z,5.50
2018-06-02T18:38:44.836Z,4.00
2018-06-02T18:41:12.324Z,18.60
2018-06-02T18:43:39.771Z,4.60
2018-06-02T18:46:07.294Z,4.33
2018-06-02T18:48:34.767Z,5.60
2018-06-02T18:51:02.352Z,4.90
2018-06-02T18:53:29.816Z,4.17
2018-06-02T18:55:57.363Z,3.80
2018-06-02T18:58:24.807Z,3.50
2018-06-02T19:00:52.308Z,6.83
2018-06-02T19:03:19.758Z,5.50
2018-06-02T19:05:47.237Z,4.50
2018-06-02T19:08:14.676Z,4.23
2018-06-02T19:10:42.177Z,4.70
2018-06-02T19:13:09.622Z,4.30
2018-06-02T19:15:37.135Z,3.97
2018-06-02T19:18:04.778Z,3.57
2018-06-02T19:20:32.249Z,4.10
2018-06-02T19:22:59.815Z,3.90
2018-06-02T19:25:27.283Z,4.50
2018-06-02T19:27:54.746Z,4.17
2018-06-02T19:30:22.194Z,4.60
2018-06-02T19:32:49.669Z,11.20
2018-06-02T19:35:17.206Z,6.10
2018-06-02T19:37:44.663Z,4.60
2018-06-02T19:40:12.116Z,4.43
2018-06-02T19:42:39.572Z,4.97
2018-06-02T19:45:07.151Z,4.07
2018-06-02T19:47:34.666Z,4.87
2018-06-02T19:50:02.132Z,4.57
2018-06-02T19:52:29.589Z,5.70
2018-06-02T19:54:57.029Z,6.33
2018-06-02T19:57:24.478Z,5.80
2018-06-02T19:59:51.934Z,5.37
2018-06-02T20:02:19.470Z,4.83
2018-06-02T20:04:50.150Z,4.70
2018-06-02T20:07:17.681Z,4.93
2018-06-02T20:09:45.160Z,5.67
2018-06-02T20:12:12.731Z,6.60
2018-06-02T20:14:40.237Z,5.93
2018-06-02T20:17:09.306Z,5.63
2018-06-02T20:19:36.919Z,9.70
2018-06-02T20:22:04.376Z,5.37
2018-06-02T20:24:31.886Z,5.07
2018-06-02T20:26:59.438Z,5.53
2018-06-02T20:29:26.891Z,5.20
2018-06-02T20:31:54.319Z,4.70
2018-06-02T20:34:21.807Z,5.90
2018-06-02T20:36:49.259Z,5.17
2018-06-02T20:39:16.746Z,5.70
2018-06-02T20:41:44.201Z,5.57
2018-06-02T20:44:11.659Z,5.90
2018-06-02T20:46:39.177Z,5.20
2018-06-02T20:49:06.646Z,4.97
2018-06-02T20:51:34.110Z,4.93
2018-06-02T20:54:01.758Z,5.07
2018-06-02T20:56:29.458Z,5.17
2018-06-02T20:58:57.065Z,4.33
2018-06-02T21:01:24.760Z,5.47
2018-06-02T21:03:53.742Z,5.30
2018-06-02T21:06:21.269Z,5.00
2018-06-02T21:08:48.757Z,4.93
2018-06-02T21:11:16.324Z,5.10
2018-06-02T21:13:43.987Z,5.30
2018-06-02T21:16:27.559Z,5.30
2018-06-02T21:19:01.292Z,5.43
2018-06-02T21:21:34.852Z,6.40
2018-06-02T21:24:06.892Z,4.87
2018-06-02T21:26:34.673Z,4.87
2018-06-02T21:29:06.455Z,5.30
2018-06-02T21:31:38.853Z,5.97
2018-06-02T21:34:19.288Z,8.67
2018-06-02T21:36:50.748Z,6.00
2018-06-02T21:39:20.470Z,6.43
2018-06-02T21:41:51.860Z,5.70
2018-06-02T21:46:58.376Z,6.60
2018-06-02T21:49:31.853Z,6.23
2018-06-02T21:52:01.131Z,5.87
2018-06-02T21:54:29.894Z,6.33
2018-06-02T21:56:59.831Z,5.80
2018-06-02T21:59:27.360Z,6.03
2018-06-02T22:01:54.919Z,5.20
2018-06-02T22:04:22.315Z,6.50
2018-06-02T22:06:49.807Z,6.00
2018-06-02T22:09:17.277Z,6.63
2018-06-02T22:11:44.759Z,5.50
2018-06-02T22:14:12.212Z,5.90
2018-06-02T22:16:39.727Z,6.33
2018-06-02T22:19:07.352Z,5.70
2018-06-02T22:21:34.819Z,6.33
2018-06-02T22:24:02.493Z,6.73
2018-06-02T22:26:29.969Z,6.27
2018-06-02T22:28:57.480Z,28.53
2018-06-02T22:31:24.982Z,7.57
2018-06-02T22:33:52.477Z,7.50
2018-06-02T22:36:20.000Z,6.23
2018-06-02T22:38:47.415Z,7.40
2018-06-02T22:41:14.853Z,7.63
2018-06-02T22:43:42.344Z,6.73
2018-06-02T22:46:09.801Z,6.57
2018-06-02T22:48:37.266Z,7.57
2018-06-02T22:51:04.856Z,6.80
2018-06-02T22:53:32.303Z,7.30
2018-06-02T22:55:59.798Z,6.67
2018-06-02T22:58:27.273Z,6.90
2018-06-02T23:00:54.861Z,5.77
2018-06-02T23:03:22.438Z,6.33
2018-06-02T23:05:49.900Z,6.77
2018-06-02T23:08:17.407Z,7.87
2018-06-02T23:10:44.870Z,7.33
2018-06-02T23:13:12.320Z,8.03
2018-06-02T23:15:39.763Z,6.67
2018-06-02T23:18:07.249Z,7.70
2018-06-02T23:20:36.271Z,7.10
2018-06-02T23:23:06.047Z,6.50
2018-06-02T23:25:34.154Z,7.13
2018-06-02T23:28:11.313Z,7.97
2018-06-02T23:30:38.917Z,7.50
2018-06-02T23:33:06.413Z,7.87
2018-06-02T23:35:33.870Z,6.80
2018-06-02T23:38:02.115Z,7.13
2018-06-02T23:40:29.646Z,7.83
2018-06-02T23:42:57.181Z,8.43
2018-06-02T23:45:24.637Z,8.23
2018-06-02T23:47:52.077Z,8.43
2018-06-02T23:50:19.590Z,8.07
2018-06-02T23:52:47.135Z,7.63
2018-06-02T23:55:14.600Z,9.30
2018-06-02T23:57:42.074Z,8.73
